sensor_id;sensor_type;location;lat;lon;timestamp;pressure;altitude;pressure_sealevel;temperature;humidity
14295;BME280;7231;59.370;18.016;2023-03-20T00:02:00;101000.38;;;2.64;100.00
14295;BME280;7231;59.370;18.016;2023-03-20T00:04:28;100992.00;;;2.68;100.00
14295;BME280;7231;59.370;18.016;2023-03-20T00:06:56;100984.34;;;2.69;100.00
14295;BME280;7231;59.370;18.016;2023-03-20T00:09:24;100963.97;;;2.60;100.00
14295;BME280;7231;59.370;18.016;2023-03-20T00:11:53;100978.47;;;2.72;100.00
14295;BME280;7231;59.370;18.016;2023-03-20T00:14:23;100973.28;;;2.72;100.00
14295;BME280;7231;59.370;18.016;2023-03-20T00:16:52;100950.78;;;2.56;100.00
14295;BME280;7231;59.370;18.016;2023-03-20T00:19:21;100951.66;;;2.56;100.00
14295;BME280;7231;59.370;18.016;2023-03-20T00:21:50;100895.63;;;2.29;100.00
14295;BME280;7231;59.370;18.016;2023-03-20T00:24:19;100973.19;;;2.70;100.00
14295;BME280;7231;59.370;18.016;2023-03-20T00:26:48;100970.59;;;2.70;100.00
14295;BME280;7231;59.370;18.016;2023-03-20T00:29:20;100968.09;;;2.72;100.00
14295;BME280;7231;59.370;18.016;2023-03-20T00:31:50;100951.38;;;2.67;100.00
14295;BME280;7231;59.370;18.016;2023-03-20T00:34:20;100967.59;;;2.77;100.00
14295;BME280;7231;59.370;18.016;2023-03-20T00:36:49;100961.78;;;2.81;100.00
14295;BME280;7231;59.370;18.016;2023-03-20T00:39:17;100924.88;;;2.71;100.00
14295;BME280;7231;59.370;18.016;2023-03-20T00:41:49;100952.78;;;2.89;100.00
14295;BME280;7231;59.370;18.016;2023-03-20T00:44:21;100960.66;;;2.91;100.00
14295;BME280;7231;59.370;18.016;2023-03-20T00:46:53;100952.69;;;2.88;100.00
14295;BME280;7231;59.370;18.016;2023-03-20T00:49:25;100944.03;;;2.87;100.00
14295;BME280;7231;59.370;18.016;2023-03-20T00:51:54;100896.59;;;2.74;100.00
14295;BME280;7231;59.370;18.016;2023-03-20T00:54:24;100916.72;;;2.92;100.00
14295;BME280;7231;59.370;18.016;2023-03-20T00:56:55;100915.09;;;2.94;100.00
14295;BME280;7231;59.370;18.016;2023-03-20T00:59:27;100893.47;;;2.79;100.00
14295;BME280;7231;59.370;18.016;2023-03-20T01:01:59;100906.53;;;2.96;100.00
14295;BME280;7231;59.370;18.016;2023-03-20T01:04:34;100907.44;;;2.96;100.00
14295;BME280;7231;59.370;18.016;2023-03-20T01:07:03;100893.59;;;2.96;100.00
14295;BME280;7231;59.370;18.016;2023-03-20T01:09:32;100892.88;;;2.98;100.00
14295;BME280;7231;59.370;18.016;2023-03-20T01:12:01;100900.81;;;3.01;100.00
14295;BME280;7231;59.370;18.016;2023-03-20T01:14:29;100889.56;;;3.01;100.00
14295;BME280;7231;59.370;18.016;2023-03-20T01:16:59;100866.63;;;2.92;100.00
14295;BME280;7231;59.370;18.016;2023-03-20T01:19:27;100816.69;;;2.65;100.00
14295;BME280;7231;59.370;18.016;2023-03-20T01:21:54;100877.25;;;2.97;100.00
14295;BME280;7231;59.370;18.016;2023-03-20T01:24:23;100875.00;;;3.03;100.00
14295;BME280;7231;59.370;18.016;2023-03-20T01:26:51;100864.66;;;3.03;100.00
14295;BME280;7231;59.370;18.016;2023-03-20T01:29:23;100872.50;;;3.04;100.00
14295;BME280;7231;59.370;18.016;2023-03-20T01:31:52;100870.81;;;3.05;100.00
14295;BME280;7231;59.370;18.016;2023-03-20T01:34:22;100866.63;;;3.07;100.00
14295;BME280;7231;59.370;18.016;2023-03-20T01:36:51;100861.53;;;3.08;100.00
14295;BME280;7231;59.370;18.016;2023-03-20T01:39:20;100858.84;;;3.07;100.00
14295;BME280;7231;59.370;18.016;2023-03-20T01:41:50;100816.69;;;2.80;100.00
14295;BME280;7231;59.370;18.016;2023-03-20T01:44:22;100844.19;;;3.07;100.00
14295;BME280;7231;59.370;18.016;2023-03-20T01:46:51;100841.78;;;3.10;100.00
14295;BME280;7231;59.370;18.016;2023-03-20T01:50:13;100828.47;;;3.04;100.00
14295;BME280;7231;59.370;18.016;2023-03-20T01:52:45;100825.97;;;3.06;100.00
14295;BME280;7231;59.370;18.016;2023-03-20T01:55:15;100824.28;;;3.06;100.00
14295;BME280;7231;59.370;18.016;2023-03-20T01:57:43;100825.09;;;3.05;100.00
14295;BME280;7231;59.370;18.016;2023-03-20T02:00:14;100810.88;;;2.99;100.00
14295;BME280;7231;59.370;18.016;2023-03-20T02:02:43;100821.78;;;3.08;100.00
14295;BME280;7231;59.370;18.016;2023-03-20T02:05:15;100827.13;;;3.11;100.00
14295;BME280;7231;59.370;18.016;2023-03-20T02:07:46;100831.69;;;3.15;100.00
14295;BME280;7231;59.370;18.016;2023-03-20T02:10:17;100806.88;;;3.04;100.00
14295;BME280;7231;59.370;18.016;2023-03-20T02:12:46;100824.00;;;3.16;100.00
14295;BME280;7231;59.370;18.016;2023-03-20T02:15:15;100818.81;;;3.16;100.00
14295;BME280;7231;59.370;18.016;2023-03-20T02:17:43;100811.94;;;3.17;100.00
14295;BME280;7231;59.370;18.016;2023-03-20T02:20:22;100815.41;;;3.17;100.00
14295;BME280;7231;59.370;18.016;2023-03-20T02:26:20;100796.47;;;3.18;100.00
14295;BME280;7231;59.370;18.016;2023-03-20T02:32:20;100760.06;;;3.01;100.00
14295;BME280;7231;59.370;18.016;2023-03-20T02:35:20;100776.66;;;3.19;100.00
14295;BME280;7231;59.370;18.016;2023-03-20T02:38:22;100765.22;;;3.15;100.00
14295;BME280;7231;59.370;18.016;2023-03-20T02:40:59;100766.28;;;3.19;100.00
14295;BME280;7231;59.370;18.016;2023-03-20T02:43:36;100684.22;;;2.72;100.00
14295;BME280;7231;59.370;18.016;2023-03-20T02:46:14;100763.69;;;3.19;100.00
14295;BME280;7231;59.370;18.016;2023-03-20T02:48:47;100759.31;;;3.18;100.00
14295;BME280;7231;59.370;18.016;2023-03-20T02:51:22;100663.16;;;2.66;100.00
14295;BME280;7231;59.370;18.016;2023-03-20T02:54:04;100746.44;;;3.19;100.00
14295;BME280;7231;59.370;18.016;2023-03-20T02:56:36;100761.34;;;3.23;100.00
14295;BME280;7231;59.370;18.016;2023-03-20T02:59:18;100741.19;;;3.18;100.00
14295;BME280;7231;59.370;18.016;2023-03-20T03:01:52;100753.59;;;3.23;100.00
14295;BME280;7231;59.370;18.016;2023-03-20T03:04:25;100740.63;;;3.23;100.00
14295;BME280;7231;59.370;18.016;2023-03-20T03:06:55;100740.72;;;3.25;100.00
14295;BME280;7231;59.370;18.016;2023-03-20T03:09:29;100709.66;;;3.10;100.00
14295;BME280;7231;59.370;18.016;2023-03-20T03:12:02;100727.75;;;3.25;100.00
14295;BME280;7231;59.370;18.016;2023-03-20T03:14:35;100727.75;;;3.25;100.00
14295;BME280;7231;59.370;18.016;2023-03-20T03:17:06;100592.53;;;2.52;100.00
14295;BME280;7231;59.370;18.016;2023-03-20T03:19:38;100684.66;;;3.11;100.00
14295;BME280;7231;59.370;18.016;2023-03-20T03:22:07;100717.41;;;3.25;100.00
14295;BME280;7231;59.370;18.016;2023-03-20T03:24:38;100714.88;;;3.26;100.00
14295;BME280;7231;59.370;18.016;2023-03-20T03:27:16;100690.19;;;3.17;100.00
14295;BME280;7231;59.370;18.016;2023-03-20T03:29:48;100708.97;;;3.29;100.00
14295;BME280;7231;59.370;18.016;2023-03-20T03:32:22;100706.38;;;3.29;100.00
14295;BME280;7231;59.370;18.016;2023-03-20T03:34:52;100696.91;;;3.30;100.00
14295;BME280;7231;59.370;18.016;2023-03-20T03:37:29;100702.19;;;3.31;100.00
14295;BME280;7231;59.370;18.016;2023-03-20T03:40:04;100706.56;;;3.32;100.00
14295;BME280;7231;59.370;18.016;2023-03-20T03:42:38;100695.38;;;3.33;100.00
14295;BME280;7231;59.370;18.016;2023-03-20T03:45:12;100679.03;;;3.34;100.00
14295;BME280;7231;59.370;18.016;2023-03-20T03:47:45;100672.06;;;3.33;100.00
14295;BME280;7231;59.370;18.016;2023-03-20T03:50:20;100647.34;;;3.23;100.00
14295;BME280;7231;59.370;18.016;2023-03-20T03:52:51;100667.03;;;3.36;100.00
14295;BME280;7231;59.370;18.016;2023-03-20T03:55:24;100648.09;;;3.37;100.00
14295;BME280;7231;59.370;18.016;2023-03-20T03:57:56;100600.78;;;3.09;100.00
14295;BME280;7231;59.370;18.016;2023-03-20T04:00:27;100643.97;;;3.41;100.00
14295;BME280;7231;59.370;18.016;2023-03-20T04:02:56;100643.25;;;3.43;100.00
14295;BME280;7231;59.370;18.016;2023-03-20T04:05:29;100657.16;;;3.45;100.00
14295;BME280;7231;59.370;18.016;2023-03-20T04:08:01;100652.88;;;3.46;100.00
14295;BME280;7231;59.370;18.016;2023-03-20T04:10:31;100626.31;;;3.34;100.00
14295;BME280;7231;59.370;18.016;2023-03-20T04:12:59;100653.94;;;3.49;100.00
14295;BME280;7231;59.370;18.016;2023-03-20T04:15:27;100623.88;;;3.37;100.00
14295;BME280;7231;59.370;18.016;2023-03-20T04:17:55;100560.00;;;3.05;100.00
14295;BME280;7231;59.370;18.016;2023-03-20T04:20:24;100633.53;;;3.55;100.00
14295;BME280;7231;59.370;18.016;2023-03-20T04:22:52;100628.41;;;3.57;100.00
14295;BME280;7231;59.370;18.016;2023-03-20T04:25:22;100536.94;;;3.09;100.00
14295;BME280;7231;59.370;18.016;2023-03-20T04:27:52;100595.28;;;3.51;100.00
14295;BME280;7231;59.370;18.016;2023-03-20T04:30:21;100607.91;;;3.62;100.00
14295;BME280;7231;59.370;18.016;2023-03-20T04:32:49;100614.16;;;3.65;100.00
14295;BME280;7231;59.370;18.016;2023-03-20T04:35:17;100608.88;;;3.64;100.00
14295;BME280;7231;59.370;18.016;2023-03-20T04:37:45;100599.47;;;3.66;100.00
14295;BME280;7231;59.370;18.016;2023-03-20T04:40:13;100593.97;;;3.59;100.00
14295;BME280;7231;59.370;18.016;2023-03-20T04:42:42;100600.69;;;3.72;100.00
14295;BME280;7231;59.370;18.016;2023-03-20T04:45:12;100605.06;;;3.73;100.00
14295;BME280;7231;59.370;18.016;2023-03-20T04:47:40;100565.97;;;3.52;100.00
14295;BME280;7231;59.370;18.016;2023-03-20T04:50:10;100601.91;;;3.79;100.00
14295;BME280;7231;59.370;18.016;2023-03-20T04:52:39;100602.06;;;3.82;100.00
14295;BME280;7231;59.370;18.016;2023-03-20T04:55:07;100595.25;;;3.84;100.00
14295;BME280;7231;59.370;18.016;2023-03-20T04:57:36;100585.84;;;3.86;100.00
14295;BME280;7231;59.370;18.016;2023-03-20T05:00:05;100578.22;;;3.89;100.00
14295;BME280;7231;59.370;18.016;2023-03-20T05:02:34;100546.31;;;3.74;100.00
14295;BME280;7231;59.370;18.016;2023-03-20T05:05:03;100571.53;;;3.94;100.00
14295;BME280;7231;59.370;18.016;2023-03-20T05:07:31;100578.66;;;3.98;100.00
14295;BME280;7231;59.370;18.016;2023-03-20T05:09:59;100570.97;;;4.00;100.00
14295;BME280;7231;59.370;18.016;2023-03-20T05:12:27;100549.81;;;3.92;100.00
14295;BME280;7231;59.370;18.016;2023-03-20T05:14:55;100566.88;;;4.05;100.00
14295;BME280;7231;59.370;18.016;2023-03-20T05:17:23;100576.38;;;4.04;100.00
14295;BME280;7231;59.370;18.016;2023-03-20T05:19:52;100529.38;;;3.80;100.00
14295;BME280;7231;59.370;18.016;2023-03-20T05:22:20;100579.19;;;4.09;100.00
14295;BME280;7231;59.370;18.016;2023-03-20T05:24:48;100568.00;;;4.10;100.00
14295;BME280;7231;59.370;18.016;2023-03-20T05:27:17;100569.06;;;4.13;100.00
14295;BME280;7231;59.370;18.016;2023-03-20T05:29:45;100568.16;;;4.13;100.00
14295;BME280;7231;59.370;18.016;2023-03-20T05:32:13;100560.44;;;4.14;100.00
14295;BME280;7231;59.370;18.016;2023-03-20T05:34:41;100557.94;;;4.16;100.00
14295;BME280;7231;59.370;18.016;2023-03-20T05:37:13;100549.41;;;4.18;100.00
14295;BME280;7231;59.370;18.016;2023-03-20T05:39:41;100553.03;;;4.22;100.00
14295;BME280;7231;59.370;18.016;2023-03-20T05:42:08;100548.00;;;4.25;100.00
14295;BME280;7231;59.370;18.016;2023-03-20T05:44:36;100551.63;;;4.29;100.00
14295;BME280;7231;59.370;18.016;2023-03-20T05:47:04;100547.56;;;4.34;100.00
14295;BME280;7231;59.370;18.016;2023-03-20T05:49:32;100540.72;;;4.36;100.00
14295;BME280;7231;59.370;18.016;2023-03-20T05:52:00;100552.06;;;4.38;100.00
14295;BME280;7231;59.370;18.016;2023-03-20T05:54:29;100551.41;;;4.42;100.00
14295;BME280;7231;59.370;18.016;2023-03-20T05:56:57;100552.38;;;4.44;100.00
14295;BME280;7231;59.370;18.016;2023-03-20T05:59:25;100543.91;;;4.48;100.00
14295;BME280;7231;59.370;18.016;2023-03-20T06:01:53;100495.00;;;4.20;100.00
14295;BME280;7231;59.370;18.016;2023-03-20T06:04:21;100499.66;;;4.27;100.00
14295;BME280;7231;59.370;18.016;2023-03-20T06:06:49;100539.81;;;4.53;100.00
14295;BME280;7231;59.370;18.016;2023-03-20T06:09:17;100540.94;;;4.58;100.00
14295;BME280;7231;59.370;18.016;2023-03-20T06:11:47;100541.97;;;4.62;100.00
14295;BME280;7231;59.370;18.016;2023-03-20T06:14:15;100548.19;;;4.65;100.00
14295;BME280;7231;59.370;18.016;2023-03-20T06:16:43;100538.91;;;4.70;100.00
14295;BME280;7231;59.370;18.016;2023-03-20T06:19:11;100541.66;;;4.73;100.00
14295;BME280;7231;59.370;18.016;2023-03-20T06:21:39;100535.69;;;4.76;100.00
14295;BME280;7231;59.370;18.016;2023-03-20T06:24:07;100485.97;;;4.49;100.00
14295;BME280;7231;59.370;18.016;2023-03-20T06:26:35;100538.22;;;4.74;100.00
14295;BME280;7231;59.370;18.016;2023-03-20T06:29:04;100526.88;;;4.72;100.00
14295;BME280;7231;59.370;18.016;2023-03-20T06:31:32;100521.75;;;4.74;100.00
14295;BME280;7231;59.370;18.016;2023-03-20T06:34:00;100532.34;;;4.78;100.00
14295;BME280;7231;59.370;18.016;2023-03-20T06:36:28;100530.72;;;4.80;100.00
14295;BME280;7231;59.370;18.016;2023-03-20T06:38:56;100533.38;;;4.82;100.00
14295;BME280;7231;59.370;18.016;2023-03-20T06:41:24;100542.97;;;4.83;100.00
14295;BME280;7231;59.370;18.016;2023-03-20T06:44:00;100503.75;;;4.59;100.00
14295;BME280;7231;59.370;18.016;2023-03-20T06:46:30;100527.09;;;4.77;100.00
14295;BME280;7231;59.370;18.016;2023-03-20T06:48:58;100522.09;;;4.81;100.00
14295;BME280;7231;59.370;18.016;2023-03-20T06:51:27;100514.09;;;4.77;100.00
14295;BME280;7231;59.370;18.016;2023-03-20T06:53:55;100525.34;;;4.95;100.00
14295;BME280;7231;59.370;18.016;2023-03-20T06:56:23;100525.81;;;5.06;100.00
14295;BME280;7231;59.370;18.016;2023-03-20T06:58:51;100522.59;;;5.11;100.00
14295;BME280;7231;59.370;18.016;2023-03-20T07:01:19;100355.56;;;4.16;100.00
14295;BME280;7231;59.370;18.016;2023-03-20T07:03:49;100324.28;;;4.13;100.00
14295;BME280;7231;59.370;18.016;2023-03-20T07:06:17;100510.88;;;5.21;100.00
14295;BME280;7231;59.370;18.016;2023-03-20T07:08:45;100518.81;;;5.24;100.00
14295;BME280;7231;59.370;18.016;2023-03-20T07:11:13;100473.72;;;5.03;100.00
14295;BME280;7231;59.370;18.016;2023-03-20T07:13:41;100525.16;;;5.31;100.00
14295;BME280;7231;59.370;18.016;2023-03-20T07:16:09;100519.06;;;5.30;100.00
14295;BME280;7231;59.370;18.016;2023-03-20T07:18:37;100520.84;;;5.31;100.00
14295;BME280;7231;59.370;18.016;2023-03-20T07:21:10;100512.22;;;5.32;100.00
14295;BME280;7231;59.370;18.016;2023-03-20T07:23:42;100495.69;;;5.30;100.00
14295;BME280;7231;59.370;18.016;2023-03-20T07:26:11;100499.44;;;5.37;100.00
14295;BME280;7231;59.370;18.016;2023-03-20T07:28:39;100498.69;;;5.39;100.00
14295;BME280;7231;59.370;18.016;2023-03-20T07:31:08;100492.84;;;5.45;100.00
14295;BME280;7231;59.370;18.016;2023-03-20T07:33:45;100494.88;;;5.52;100.00
14295;BME280;7231;59.370;18.016;2023-03-20T07:36:14;100495.78;;;5.52;100.00
14295;BME280;7231;59.370;18.016;2023-03-20T07:38:42;100484.28;;;5.47;100.00
14295;BME280;7231;59.370;18.016;2023-03-20T07:41:10;100495.16;;;5.58;100.00
14295;BME280;7231;59.370;18.016;2023-03-20T07:43:38;100494.53;;;5.64;100.00
14295;BME280;7231;59.370;18.016;2023-03-20T07:46:09;100492.31;;;5.73;100.00
14295;BME280;7231;59.370;18.016;2023-03-20T07:48:37;100492.25;;;5.71;100.00
14295;BME280;7231;59.370;18.016;2023-03-20T07:51:06;100466.72;;;5.63;100.00
14295;BME280;7231;59.370;18.016;2023-03-20T07:53:36;100488.56;;;5.87;100.00
14295;BME280;7231;59.370;18.016;2023-03-20T07:56:04;100456.38;;;5.85;100.00
14295;BME280;7231;59.370;18.016;2023-03-20T07:58:32;100479.75;;;6.04;100.00
14295;BME280;7231;59.370;18.016;2023-03-20T08:01:00;100479.88;;;6.07;100.00
14295;BME280;7231;59.370;18.016;2023-03-20T08:03:29;100478.94;;;6.05;100.00
14295;BME280;7231;59.370;18.016;2023-03-20T08:05:58;100469.03;;;5.97;100.00
14295;BME280;7231;59.370;18.016;2023-03-20T08:08:27;100465.44;;;5.93;100.00
14295;BME280;7231;59.370;18.016;2023-03-20T08:10:56;100470.75;;;5.96;100.00
14295;BME280;7231;59.370;18.016;2023-03-20T08:13:24;100466.56;;;6.00;100.00
14295;BME280;7231;59.370;18.016;2023-03-20T08:15:52;100455.31;;;6.01;100.00
14295;BME280;7231;59.370;18.016;2023-03-20T08:18:20;100451.13;;;6.04;100.00
14295;BME280;7231;59.370;18.016;2023-03-20T08:20:48;100449.34;;;6.03;100.00
14295;BME280;7231;59.370;18.016;2023-03-20T08:23:18;100414.63;;;5.82;100.00
14295;BME280;7231;59.370;18.016;2023-03-20T08:25:47;100300.31;;;5.19;100.00
14295;BME280;7231;59.370;18.016;2023-03-20T08:28:17;100423.38;;;5.84;100.00
14295;BME280;7231;59.370;18.016;2023-03-20T08:30:45;100459.75;;;6.03;100.00
14295;BME280;7231;59.370;18.016;2023-03-20T08:33:14;100306.84;;;5.10;100.00
14295;BME280;7231;59.370;18.016;2023-03-20T08:35:43;100454.31;;;5.97;100.00
14295;BME280;7231;59.370;18.016;2023-03-20T08:38:21;100414.50;;;5.79;100.00
14295;BME280;7231;59.370;18.016;2023-03-20T08:40:49;100455.50;;;6.05;100.00
14295;BME280;7231;59.370;18.016;2023-03-20T08:43:21;100428.41;;;6.00;100.00
14295;BME280;7231;59.370;18.016;2023-03-20T08:45:49;100381.53;;;5.78;100.00
14295;BME280;7231;59.370;18.016;2023-03-20T08:48:18;100440.06;;;6.10;100.00
14295;BME280;7231;59.370;18.016;2023-03-20T08:50:45;100439.44;;;6.15;100.00
14295;BME280;7231;59.370;18.016;2023-03-20T08:53:13;100437.13;;;6.23;100.00
14295;BME280;7231;59.370;18.016;2023-03-20T08:55:46;100427.06;;;6.32;100.00
14295;BME280;7231;59.370;18.016;2023-03-20T08:58:14;100430.56;;;6.33;100.00
14295;BME280;7231;59.370;18.016;2023-03-20T09:00:44;100433.97;;;6.32;100.00
14295;BME280;7231;59.370;18.016;2023-03-20T09:03:12;100350.88;;;5.92;100.00
14295;BME280;7231;59.370;18.016;2023-03-20T09:05:42;100416.81;;;6.37;100.00
14295;BME280;7231;59.370;18.016;2023-03-20T09:08:10;100416.22;;;6.44;100.00
14295;BME280;7231;59.370;18.016;2023-03-20T09:10:38;100373.53;;;6.16;100.00
14295;BME280;7231;59.370;18.016;2023-03-20T09:13:07;100433.50;;;6.42;100.00
14295;BME280;7231;59.370;18.016;2023-03-20T09:15:54;100429.13;;;6.41;100.00
14295;BME280;7231;59.370;18.016;2023-03-20T09:18:23;100404.69;;;6.37;100.00
14295;BME280;7231;59.370;18.016;2023-03-20T09:20:51;100270.97;;;5.67;100.00
14295;BME280;7231;59.370;18.016;2023-03-20T09:23:22;100415.13;;;6.61;100.00
14295;BME280;7231;59.370;18.016;2023-03-20T09:25:50;100424.56;;;6.58;100.00
14295;BME280;7231;59.370;18.016;2023-03-20T09:28:18;100412.97;;;6.49;100.00
14295;BME280;7231;59.370;18.016;2023-03-20T09:30:46;100369.50;;;6.25;100.00
14295;BME280;7231;59.370;18.016;2023-03-20T09:33:15;100411.00;;;6.44;100.00
14295;BME280;7231;59.370;18.016;2023-03-20T09:35:44;100318.75;;;5.91;100.00
14295;BME280;7231;59.370;18.016;2023-03-20T09:38:12;100426.88;;;6.50;100.00
14295;BME280;7231;59.370;18.016;2023-03-20T09:40:49;100422.16;;;6.40;100.00
14295;BME280;7231;59.370;18.016;2023-03-20T09:43:39;100395.34;;;6.20;100.00
14295;BME280;7231;59.370;18.016;2023-03-20T09:46:18;100366.44;;;5.90;100.00
14295;BME280;7231;59.370;18.016;2023-03-20T09:48:53;100413.94;;;6.29;100.00
14295;BME280;7231;59.370;18.016;2023-03-20T09:51:33;100412.31;;;6.33;100.00
14295;BME280;7231;59.370;18.016;2023-03-20T09:54:07;99931.91;;;3.54;100.00
14295;BME280;7231;59.370;18.016;2023-03-20T09:56:41;100141.78;;;4.75;100.00
14295;BME280;7231;59.370;18.016;2023-03-20T09:59:11;100396.13;;;6.17;100.00
14295;BME280;7231;59.370;18.016;2023-03-20T10:01:44;100417.53;;;6.33;100.00
14295;BME280;7231;59.370;18.016;2023-03-20T10:04:16;100417.00;;;6.41;100.00
14295;BME280;7231;59.370;18.016;2023-03-20T10:06:44;100415.34;;;6.43;100.00
14295;BME280;7231;59.370;18.016;2023-03-20T10:09:20;100405.69;;;6.41;100.00
14295;BME280;7231;59.370;18.016;2023-03-20T10:12:17;100409.78;;;6.34;100.00
14295;BME280;7231;59.370;18.016;2023-03-20T10:14:57;100385.06;;;6.23;100.00
14295;BME280;7231;59.370;18.016;2023-03-20T10:17:39;100401.31;;;6.40;100.00
14295;BME280;7231;59.370;18.016;2023-03-20T10:20:22;100393.63;;;6.43;100.00
14295;BME280;7231;59.370;18.016;2023-03-20T10:22:55;100322.66;;;6.02;100.00
14295;BME280;7231;59.370;18.016;2023-03-20T10:25:27;100404.31;;;6.50;100.00
14295;BME280;7231;59.370;18.016;2023-03-20T10:28:00;100389.19;;;6.40;100.00
14295;BME280;7231;59.370;18.016;2023-03-20T10:30:40;100411.19;;;6.48;100.00
14295;BME280;7231;59.370;18.016;2023-03-20T10:33:23;100339.28;;;6.06;100.00
14295;BME280;7231;59.370;18.016;2023-03-20T10:36:06;100402.53;;;6.49;100.00
14295;BME280;7231;59.370;18.016;2023-03-20T10:38:42;100404.16;;;6.46;100.00
14295;BME280;7231;59.370;18.016;2023-03-20T10:41:15;100327.91;;;6.04;100.00
14295;BME280;7231;59.370;18.016;2023-03-20T10:43:46;100404.84;;;6.42;100.00
14295;BME280;7231;59.370;18.016;2023-03-20T10:46:18;100391.78;;;6.40;100.00
14295;BME280;7231;59.370;18.016;2023-03-20T10:48:51;100405.44;;;6.57;100.00
14295;BME280;7231;59.370;18.016;2023-03-20T10:51:35;100401.38;;;6.65;100.00
14295;BME280;7231;59.370;18.016;2023-03-20T10:54:11;100377.72;;;6.59;100.00
14295;BME280;7231;59.370;18.016;2023-03-20T10:56:47;100390.63;;;6.80;100.00
14295;BME280;7231;59.370;18.016;2023-03-20T10:59:22;100390.75;;;6.83;100.00
14295;BME280;7231;59.370;18.016;2023-03-20T11:01:50;100388.88;;;6.79;100.00
14295;BME280;7231;59.370;18.016;2023-03-20T11:04:18;100380.44;;;6.86;100.00
14295;BME280;7231;59.370;18.016;2023-03-20T11:06:53;100380.88;;;6.98;100.00
14295;BME280;7231;59.370;18.016;2023-03-20T11:09:24;100374.03;;;7.02;100.00
14295;BME280;7231;59.370;18.016;2023-03-20T11:11:56;100370.66;;;7.04;100.00
14295;BME280;7231;59.370;18.016;2023-03-20T11:14:27;100371.69;;;7.09;100.00
14295;BME280;7231;59.370;18.016;2023-03-20T11:17:00;100370.28;;;7.19;100.00
14295;BME280;7231;59.370;18.016;2023-03-20T11:19:33;100361.09;;;7.30;100.00
14295;BME280;7231;59.370;18.016;2023-03-20T11:22:23;100365.06;;;7.44;100.00
14295;BME280;7231;59.370;18.016;2023-03-20T11:24:53;100364.84;;;7.38;100.00
14295;BME280;7231;59.370;18.016;2023-03-20T11:27:29;100362.09;;;7.34;100.00
14295;BME280;7231;59.370;18.016;2023-03-20T11:30:00;100365.38;;;7.28;100.00
14295;BME280;7231;59.370;18.016;2023-03-20T11:32:30;100359.03;;;7.20;100.00
14295;BME280;7231;59.370;18.016;2023-03-20T11:35:10;100359.97;;;7.22;100.00
14295;BME280;7231;59.370;18.016;2023-03-20T11:37:44;100354.78;;;7.24;100.00
14295;BME280;7231;59.370;18.016;2023-03-20T11:40:17;100356.56;;;7.25;100.00
14295;BME280;7231;59.370;18.016;2023-03-20T11:42:52;100352.34;;;7.28;100.00
14295;BME280;7231;59.370;18.016;2023-03-20T11:45:22;100351.59;;;7.32;100.00
14295;BME280;7231;59.370;18.016;2023-03-20T11:47:53;100356.94;;;7.35;100.00
14295;BME280;7231;59.370;18.016;2023-03-20T11:50:29;100347.53;;;7.40;100.00
14295;BME280;7231;59.370;18.016;2023-03-20T11:52:59;100354.66;;;7.46;100.00
14295;BME280;7231;59.370;18.016;2023-03-20T11:55:30;100345.13;;;7.46;100.00
14295;BME280;7231;59.370;18.016;2023-03-20T11:58:00;100297.19;;;7.16;100.00
14295;BME280;7231;59.370;18.016;2023-03-20T12:00:35;100342.50;;;7.46;100.00
14295;BME280;7231;59.370;18.016;2023-03-20T12:05:59;100333.66;;;7.41;100.00
14295;BME280;7231;59.370;18.016;2023-03-20T12:08:30;100335.28;;;7.38;100.00
14295;BME280;7231;59.370;18.016;2023-03-20T12:11:02;100334.44;;;7.39;100.00
14295;BME280;7231;59.370;18.016;2023-03-20T12:13:38;100329.16;;;7.37;100.00
14295;BME280;7231;59.370;18.016;2023-03-20T12:16:12;100336.38;;;7.44;100.00
14295;BME280;7231;59.370;18.016;2023-03-20T12:18:44;100299.78;;;7.43;100.00
14295;BME280;7231;59.370;18.016;2023-03-20T12:21:16;100300.31;;;7.60;100.00
14295;BME280;7231;59.370;18.016;2023-03-20T12:23:52;100307.09;;;7.83;100.00
14295;BME280;7231;59.370;18.016;2023-03-20T12:26:27;100181.97;;;7.28;100.00
14295;BME280;7231;59.370;18.016;2023-03-20T12:29:03;100314.84;;;8.08;100.00
14295;BME280;7231;59.370;18.016;2023-03-20T12:31:38;100311.34;;;8.08;100.00
14295;BME280;7231;59.370;18.016;2023-03-20T12:34:10;100305.31;;;8.10;100.00
14295;BME280;7231;59.370;18.016;2023-03-20T12:36:41;100293.41;;;7.90;100.00
14295;BME280;7231;59.370;18.016;2023-03-20T12:39:13;100309.47;;;8.04;100.00
14295;BME280;7231;59.370;18.016;2023-03-20T12:41:52;100306.03;;;8.05;100.00
14295;BME280;7231;59.370;18.016;2023-03-20T12:44:35;100290.00;;;7.93;100.00
14295;BME280;7231;59.370;18.016;2023-03-20T12:47:27;100310.97;;;7.96;100.00
14295;BME280;7231;59.370;18.016;2023-03-20T12:50:09;100308.19;;;7.90;100.00
14295;BME280;7231;59.370;18.016;2023-03-20T12:52:47;100292.88;;;7.72;100.00
14295;BME280;7231;59.370;18.016;2023-03-20T12:55:30;100311.34;;;7.78;100.00
14295;BME280;7231;59.370;18.016;2023-03-20T12:58:05;100318.94;;;7.70;100.00
14295;BME280;7231;59.370;18.016;2023-03-20T13:00:39;100315.38;;;7.68;100.00
14295;BME280;7231;59.370;18.016;2023-03-20T13:06:14;100283.81;;;7.32;100.00
14295;BME280;7231;59.370;18.016;2023-03-20T13:09:00;100329.81;;;7.57;100.00
14295;BME280;7231;59.370;18.016;2023-03-20T13:11:39;100327.94;;;7.53;100.00
14295;BME280;7231;59.370;18.016;2023-03-20T13:14:13;100326.97;;;7.49;100.00
14295;BME280;7231;59.370;18.016;2023-03-20T13:16:49;100329.47;;;7.46;100.00
14295;BME280;7231;59.370;18.016;2023-03-20T13:19:24;100278.00;;;7.14;100.00
14295;BME280;7231;59.370;18.016;2023-03-20T13:21:58;100328.53;;;7.44;100.00
14295;BME280;7231;59.370;18.016;2023-03-20T13:24:36;100327.75;;;7.47;100.00
14295;BME280;7231;59.370;18.016;2023-03-20T13:27:26;100326.03;;;7.47;100.00